Latest Weather Observations for Jabiru

IDD60801

Issued at 8:01 am CST Friday 6 March 2015 (issued every 30 minutes, with the page automatically refreshed every 10 minutes)

About weather observations | Map of weather stations | Latest weather observations for NT | Other Formats
Station Details ID: 014198 Name: JABIRU AIRPORT Lat: -12.66 Lon: 132.89 Height: 26.5 m
Data from the previous 72 hours. | See also: Recent months at Jabiru
Date/Time
CST
Temp
°C
App
Temp
°C
Dew
Point
Rel
Hum
%
Delta-T
°C
Wind Press
QNH
hPa
Press
MSL
hPa
Rain
since 9 am
mm
Dir
 
Spd
km/h
Gust
km/h
Spd
kts
Gust
kts
06/08:00am 27.3 33.5 24.6 85 1.9 CALM 0 4 0 2 1007.7 1007.5 0.2
06/07:30am 25.6 30.2 24.2 92 1.0 E 7 9 4 5 1007.3 1007.1 0.2
06/07:00am 24.6 29.1 23.7 95 0.6 E 6 7 3 4 1007.1 1006.9 0.2
06/06:30am 24.3 29.8 23.4 95 0.6 CALM 0 0 0 0 1007.1 1006.9 0.2
06/06:00am 24.4 29.9 23.4 94 0.7 CALM 0 0 0 0 1007.2 1007.0 0.2
06/05:30am 24.4 29.5 23.4 94 0.7 E 2 6 1 3 1007.1 1006.9 0.2
06/05:00am 24.6 30.3 23.7 95 0.6 CALM 0 0 0 0 1007.0 1006.8 0.2
06/04:30am 24.7 30.0 23.7 94 0.7 SE 2 7 1 4 1007.2 1007.0 0.2
06/04:00am 24.7 30.3 23.5 93 0.8 CALM 0 0 0 0 1007.3 1007.1 0.2
06/03:30am 25.2 30.9 23.8 92 1.0 CALM 0 0 0 0 1007.6 1007.4 0.2
06/03:00am 25.4 30.4 23.8 91 1.1 W 4 6 2 3 1007.7 1007.5 0.2
06/02:30am 25.4 31.0 23.6 90 1.2 CALM 0 0 0 0 1007.9 1007.7 0.2
06/02:00am 25.3 29.7 23.4 89 1.3 ENE 6 7 3 4 1008.1 1007.9 0.2
06/01:30am 25.5 29.8 23.6 89 1.3 ENE 7 9 4 5 1008.1 1007.9 0.2
06/01:00am 25.7 31.3 23.6 88 1.4 CALM 0 0 0 0 1008.5 1008.3 0.2
06/12:30am 25.8 30.6 23.5 87 1.6 E 4 6 2 3 1008.8 1008.6 0.2
06/12:00am 26.0 31.6 23.5 86 1.7 CALM 0 0 0 0 1009.1 1008.9 0.2
 
Date/Time
CST
Temp
°C
App
Temp
°C
Dew
Point
Rel
Hum
%
Delta-T
°C
Wind Press
QNH
hPa
Press
MSL
hPa
Rain
since 9 am
mm
Dir
 
Spd
km/h
Gust
km/h
Spd
kts
Gust
kts
05/11:30pm 26.4 31.8 23.3 83 2.1 CALM 0 0 0 0 1009.3 1009.1 0.2
05/11:00pm 26.3 31.6 23.0 82 2.2 CALM 0 0 0 0 1009.5 1009.3 0.2
05/10:30pm 26.9 32.3 23.2 80 2.5 CALM 0 0 0 0 1009.4 1009.2 0.2
05/10:00pm 27.1 31.0 22.9 78 2.9 NNW 7 11 4 6 1009.2 1009.0 0.2
05/09:30pm 27.1 31.7 23.8 82 2.3 N 6 9 3 5 1008.8 1008.6 0.2
05/09:00pm 27.4 31.6 23.4 79 2.7 N 7 11 4 6 1008.7 1008.5 0.2
05/08:30pm 27.8 31.4 23.0 75 3.3 NNE 9 11 5 6 1008.3 1008.1 0.2
05/08:00pm 28.4 30.2 22.6 71 3.9 N 17 22 9 12 1007.9 1007.7 0.2
05/07:30pm 29.6 32.8 23.1 68 4.5 NW 11 15 6 8 1007.1 1006.9 0.2
05/07:00pm 30.4 34.4 22.8 64 5.2 N 6 7 3 4 1006.2 1006.0 0.2
05/06:30pm 31.0 35.5 23.9 66 4.9 NNE 7 13 4 7 1005.8 1005.6 0.2
05/06:00pm 31.1 34.0 23.2 63 5.5 NNE 13 17 7 9 1005.2 1005.0 0.2
05/05:30pm 31.4 33.9 23.2 61 5.7 NE 15 22 8 12 1005.1 1004.9 0.2
05/05:00pm 34.0 36.5 22.4 50 8.0 N 13 19 7 10 1004.7 1004.5 0.2
05/04:30pm 35.5 35.9 19.8 39 10.5 ENE 17 22 9 12 1004.8 1004.6 0.2
05/04:00pm 35.4 36.5 18.9 37 10.9 ENE 11 20 6 11 1004.6 1004.4 0.2
05/03:30pm 35.8 36.9 20.5 41 10.3 E 15 22 8 12 1005.2 1005.0 0.2
05/03:00pm 34.9 35.6 18.9 39 10.5 SE 13 20 7 11 1005.5 1005.3 0.2
05/02:30pm 34.9 36.7 21.2 45 9.3 SE 13 22 7 12 1005.9 1005.7 0.2
05/02:00pm 34.3 36.8 21.0 45 9.0 ESE 9 20 5 11 1006.4 1006.2 0.2
05/01:30pm 34.4 37.6 23.1 51 7.8 ESE 11 19 6 10 1007.0 1006.8 0.2
05/01:00pm 33.7 37.4 22.5 52 7.7 NE 7 13 4 7 1007.6 1007.4 0.2
05/12:30pm 33.0 36.3 21.8 51 7.6 ESE 7 13 4 7 1008.3 1008.1 0.2
05/12:00pm 32.1 35.9 22.8 58 6.4 ENE 7 11 4 6 1008.6 1008.4 0.2
05/11:30am 31.6 35.7 23.2 61 5.8 SE 7 11 4 6 1009.0 1008.8 0.2
05/11:00am 30.6 34.9 23.3 65 5.0 S 6 11 3 6 1009.3 1009.1 0.2
05/10:30am 30.2 34.5 23.6 67 4.6 SSW 7 11 4 6 1009.6 1009.4 0.2
05/10:00am 29.2 34.5 25.0 78 2.9 SSW 6 7 3 4 1009.7 1009.5 0.0
05/09:30am 28.8 33.5 25.0 80 2.7 SW 9 11 5 6 1009.7 1009.5 0.0
05/09:00am 29.0 34.0 24.8 78 2.9 SSW 7 9 4 5 1009.5 1009.3 0.2
05/08:30am 28.5 33.6 24.7 80 2.7 SSE 6 9 3 5 1009.4 1009.2 0.2
05/08:00am 27.4 33.7 24.7 85 1.9 CALM 0 7 0 4 1008.7 1008.5 0.2
05/07:30am 26.0 31.1 24.6 92 1.0 NNW 6 9 3 5 1008.3 1008.1 0.2
05/07:00am 25.6 31.8 24.6 94 0.7 CALM 0 0 0 0 1008.6 1008.4 0.2
05/06:30am 25.7 31.8 24.5 93 0.8 CALM 0 0 0 0 1008.6 1008.4 0.2
05/06:00am 25.8 31.9 24.4 92 1.0 CALM 0 0 0 0 1008.8 1008.6 0.2
05/05:30am 26.0 32.2 24.6 92 1.0 CALM 0 0 0 0 1008.7 1008.5 0.2
05/05:00am 25.8 32.0 24.6 93 0.8 CALM 0 0 0 0 1008.5 1008.3 0.2
05/04:30am 25.6 30.7 24.6 94 0.7 ESE 6 7 3 4 1008.1 1007.9 0.2
05/04:00am 25.4 30.0 24.2 93 0.8 E 7 9 4 5 1007.7 1007.5 0.2
05/03:30am 25.6 30.0 24.4 93 0.8 E 9 11 5 6 1007.6 1007.4 0.2
05/03:00am 25.8 30.3 24.6 93 0.8 E 9 11 5 6 1008.1 1007.9 0.2
05/02:30am 25.8 30.7 24.6 93 0.8 ESE 7 11 4 6 1008.3 1008.1 0.2
05/02:00am 25.7 30.4 24.3 92 1.0 ESE 7 9 4 5 1008.6 1008.4 0.2
05/01:30am 25.6 30.1 24.0 91 1.1 E 7 9 4 5 1008.8 1008.6 0.2
05/01:00am 25.7 31.4 23.7 89 1.4 CALM 0 2 0 1 1009.0 1008.8 0.2
05/12:30am 25.8 30.3 24.0 90 1.2 ENE 7 9 4 5 1009.2 1009.0 0.2
05/12:00am 26.1 31.7 24.3 90 1.2 SSE 2 7 1 4 1009.7 1009.5 0.2
 
Date/Time
CST
Temp
°C
App
Temp
°C
Dew
Point
Rel
Hum
%
Delta-T
°C
Wind Press
QNH
hPa
Press
MSL
hPa
Rain
since 9 am
mm
Dir
 
Spd
km/h
Gust
km/h
Spd
kts
Gust
kts
04/11:30pm 26.2 32.2 24.2 89 1.4 CALM 0 0 0 0 1009.9 1009.7 0.2
04/11:00pm 26.3 31.3 24.5 90 1.2 SSW 6 7 3 4 1010.0 1009.8 0.2
04/10:30pm 26.4 31.7 24.4 89 1.4 SSE 4 7 2 4 1009.9 1009.7 0.2
04/10:00pm 26.6 32.6 24.3 87 1.6 CALM 0 6 0 3 1009.6 1009.4 0.2
04/09:30pm 26.8 31.5 24.3 86 1.7 E 7 11 4 6 1009.4 1009.2 0.2
04/09:00pm 26.8 31.4 24.1 85 1.9 NNE 7 13 4 7 1009.3 1009.1 0.2
04/08:30pm 27.6 31.9 24.2 82 2.4 NE 9 15 5 8 1009.3 1009.1 0.2
04/08:00pm 27.7 31.5 23.5 78 2.9 E 9 11 5 6 1008.9 1008.7 0.2
04/07:30pm 28.3 31.8 22.8 72 3.8 NNW 9 13 5 7 1007.9 1007.7 0.2
04/07:00pm 28.5 31.1 22.7 71 3.9 N 13 19 7 10 1007.4 1007.2 0.2
04/06:30pm 30.0 34.4 24.4 72 3.9 N 9 11 5 6 1006.3 1006.1 0.2
04/06:00pm 29.9 33.9 23.1 67 4.7 S 7 13 4 7 1006.5 1006.3 0.2
04/05:30pm 31.6 35.3 22.6 59 6.2 W 7 13 4 7 1006.3 1006.1 0.2
04/05:00pm 32.1 34.3 23.3 59 6.1 N 17 28 9 15 1005.7 1005.5 0.2
04/04:30pm 34.6 38.6 22.0 48 8.6 WSW 4 9 2 5 1005.4 1005.2 0.2
04/04:00pm 34.5 37.8 22.6 50 8.2 NW 9 17 5 9 1005.1 1004.9 0.2
04/03:30pm 34.5 39.1 23.2 51 7.9 WSW 4 9 2 5 1005.5 1005.3 0.2
04/03:00pm 34.3 38.0 23.3 52 7.7 W 9 13 5 7 1005.8 1005.6 0.2
04/02:30pm 33.5 38.1 24.1 58 6.6 NNW 7 13 4 7 1006.3 1006.1 0.2
04/02:00pm 32.4 36.4 22.8 57 6.6 W 6 9 3 5 1006.7 1006.5 0.2
04/01:30pm 32.5 37.2 23.4 58 6.3 ENE 4 9 2 5 1007.2 1007.0 0.2
04/01:00pm 32.3 36.7 23.5 59 6.1 SW 6 9 3 5 1007.9 1007.7 0.2
04/12:30pm 32.1 35.7 23.1 59 6.2 WNW 9 15 5 8 1008.5 1008.3 0.2
04/12:00pm 31.8 35.2 23.3 60 5.9 NNW 11 15 6 8 1009.0 1008.8 0.2
04/11:30am 30.8 35.6 24.2 68 4.6 NW 6 11 3 6 1009.3 1009.1 0.2
04/11:00am 30.1 34.8 24.3 71 4.0 N 7 11 4 6 1009.6 1009.4 0.2
04/10:30am 29.6 33.6 23.8 71 4.0 N 9 15 5 8 1009.6 1009.4 0.2
04/10:00am 29.3 34.0 24.0 73 3.7 NNE 6 11 3 6 1009.7 1009.5 0.2
04/09:30am 29.8 35.3 24.7 74 3.6 ENE 4 11 2 6 1009.6 1009.4 0.0
04/09:00am 28.6 33.7 25.0 81 2.5 E 7 11 4 6 1009.2 1009.0 0.6
04/08:30am 27.7 32.4 24.9 85 2.0 E 9 11 5 6 1009.0 1008.8 0.6
04/08:00am 27.0 32.0 25.4 91 1.1 E 9 11 5 6 1008.7 1008.5 0.6
04/07:30am 25.8 30.8 24.8 94 0.7 E 7 11 4 6 1008.6 1008.4 0.6
04/07:00am 25.3 29.9 24.8 97 0.3 ENE 9 11 5 6 1008.2 1008.0 0.6
04/06:30am 25.0 29.8 24.5 97 0.3 ESE 7 9 4 5 1007.8 1007.6 0.6
04/06:00am 25.0 29.8 24.5 97 0.3 E 7 9 4 5 1007.4 1007.2 0.6
04/05:30am 24.9 29.7 24.4 97 0.3 ESE 7 11 4 6 1007.1 1006.9 0.6
04/05:00am 25.0 29.9 24.3 96 0.5 E 6 7 3 4 1006.9 1006.7 0.6
04/04:30am 25.3 30.5 24.8 97 0.3 E 6 7 3 4 1006.7 1006.5 0.6
04/04:00am 25.0 29.9 24.3 96 0.5 ESE 6 7 3 4 1006.9 1006.7 0.6
04/03:30am 25.1 31.2 24.4 96 0.5 CALM 0 0 0 0 1006.7 1006.5 0.6
04/03:00am 25.2 30.1 24.3 95 0.6 E 6 6 3 3 1006.9 1006.7 0.6
04/02:30am 25.3 30.8 24.6 96 0.5 ESE 4 7 2 4 1007.2 1007.0 0.6
04/02:00am 25.3 30.2 24.4 95 0.6 ESE 6 7 3 4 1007.1 1006.9 0.6
04/01:30am 25.3 30.2 24.4 95 0.6 ESE 6 6 3 3 1007.3 1007.1 0.6
04/01:00am 25.3 30.2 24.4 95 0.6 ESE 6 7 3 4 1007.5 1007.3 0.6
04/12:30am 25.3 30.6 24.3 94 0.7 E 4 7 2 4 1007.8 1007.6 0.6
04/12:00am 25.5 31.6 24.5 94 0.7 CALM 0 0 0 0 1008.1 1007.9 0.6
 
Date/Time
CST
Temp
°C
App
Temp
°C
Dew
Point
Rel
Hum
%
Delta-T
°C
Wind Press
QNH
hPa
Press
MSL
hPa
Rain
since 9 am
mm
Dir
 
Spd
km/h
Gust
km/h
Spd
kts
Gust
kts
03/11:30pm 25.5 30.5 24.5 94 0.7 E 6 7 3 4 1008.1 1007.9 0.6
03/11:00pm 25.5 30.3 24.5 94 0.7 ESE 7 9 4 5 1008.4 1008.2 0.6
03/10:30pm 25.8 31.8 24.8 94 0.7 E 2 6 1 3 1008.3 1008.1 0.6
03/10:00pm 25.9 32.2 24.7 93 0.8 CALM 0 0 0 0 1008.2 1008.0 0.6
03/09:30pm 25.9 31.4 24.7 93 0.8 SSE 4 7 2 4 1007.9 1007.7 0.6
03/09:00pm 26.2 32.3 24.4 90 1.2 CALM 0 0 0 0 1007.5 1007.3 0.6
03/08:30pm 26.1 31.7 24.3 90 1.2 WSW 2 6 1 3 1007.4 1007.2 0.6
03/08:00pm 26.4 32.3 24.1 87 1.6 CALM 0 0 0 0 1007.1 1006.9 0.6
03/07:30pm 26.7 31.4 24.0 85 1.9 SW 6 9 3 5 1006.9 1006.7 0.6
03/07:00pm 27.2 31.3 24.5 85 1.9 WNW 11 13 6 7 1006.6 1006.4 0.6
03/06:30pm 27.4 31.3 23.6 80 2.6 NW 9 13 5 7 1006.3 1006.1 0.6
03/06:00pm 27.6 31.7 24.0 81 2.5 N 9 17 5 9 1005.9 1005.7 0.6
03/05:30pm 27.7 32.0 23.7 79 2.8 N 7 11 4 6 1005.7 1005.5 0.6
03/05:00pm 27.8 32.2 23.8 79 2.8 NNE 7 13 4 7 1005.5 1005.3 0.6
03/04:30pm 28.1 32.0 24.3 80 2.6 NNE 11 15 6 8 1005.3 1005.1 0.6
03/04:00pm 27.9 32.5 25.3 86 1.8 ENE 11 15 6 8 1005.5 1005.3 0.6
03/03:30pm 26.8 30.7 24.8 89 1.4 NE 13 20 7 11 1005.7 1005.5 0.4
03/03:00pm 27.1 30.6 24.9 88 1.5 NNW 15 20 8 11 1005.5 1005.3 0.2
03/02:30pm 27.8 30.9 25.4 87 1.7 NNW 19 28 10 15 1005.7 1005.5 0.2
03/02:00pm 28.8 31.6 25.0 80 2.7 NNW 19 24 10 13 1006.1 1005.9 0.2
03/01:30pm 31.1 35.5 24.5 68 4.6 NNE 9 20 5 11 1006.1 1005.9 0.2
03/01:00pm 30.4 33.6 24.3 70 4.3 NNE 15 22 8 12 1006.7 1006.5 0.2
03/12:30pm 30.7 33.6 23.9 67 4.7 NNE 15 20 8 11 1006.9 1006.7 0.2
03/12:00pm 31.4 33.7 23.5 63 5.5 NNE 17 24 9 13 1007.3 1007.1 0.2
03/11:30am 30.7 33.3 23.9 67 4.7 NE 17 22 9 12 1007.5 1007.3 0.2
03/11:00am 30.7 33.6 24.4 69 4.4 NE 17 26 9 14 1007.7 1007.5 0.2
03/10:30am 30.1 32.9 24.3 71 4.0 NNE 17 24 9 13 1007.6 1007.4 0.2
03/10:00am 29.3 31.9 24.0 73 3.7 NNE 17 24 9 13 1007.6 1007.4 0.2
03/09:30am 28.7 31.9 24.3 77 3.1 ENE 15 22 8 12 1007.6 1007.4 0.0
03/09:00am 28.6 30.8 23.9 75 3.3 ENE 19 24 10 13 1007.4 1007.2 17.0
03/08:30am 28.0 32.2 24.8 83 2.2 ENE 11 17 6 9 1006.8 1006.6 17.0

Other Formats:

Comma delimited format used in spreadsheet applications
http://www.bom.gov.au/fwo/IDD60801/IDD60801.94137.axf

JavaScript Object Notation format (JSON) in row-major order
http://www.bom.gov.au/fwo/IDD60801/IDD60801.94137.json